Aviation Digital Data Service (ADDS)

Output produced by METARs form (1654 UTC 03 June 2020)
found at http://www.aviationweather.gov/metar/data/
 
Forecast for: GMMN (NOUASSEUR/CASABL, MA)
Text: TAF GMMN 031100Z 0312/0418 02004KT CAVOK
Forecast period: 1200 UTC 03 June 2020 to 1800 UTC 04 June 2020
Forecast type: FROM: standard forecast or significant change
Winds: from the NNE (20 degrees) at 5 MPH (4 knots; 2.1 m/s)
Visibility: 6 or more miles 10+ km)
Ceiling: unknown
Clouds: missing
Weather: NSW  (no significant weather)
Text: BECMG 0312/0314 34012KT
Forecast period: 1200 to 1800 UTC 03 June 2020
Forecast type: BECOMING: Conditions expected to become as follows by 1400 UTC 03 June 2020
Winds: from the NNW (340 degrees) at 14 MPH (12 knots; 6.2 m/s)
Visibility: 6 or more miles 10+ km)
Ceiling: unknown
Clouds: missing
Weather: NSW  (no significant weather)
Text: BECMG 0318/0322 02004KT
Forecast period: 1800 UTC 03 June 2020 to 1800 UTC 04 June 2020
Forecast type: BECOMING: Conditions expected to become as follows by 2200 UTC 03 June 2020
Winds: from the NNE (20 degrees) at 5 MPH (4 knots; 2.1 m/s)
Visibility: 6 or more miles 10+ km)
Ceiling: unknown
Clouds: missing
Weather: NSW  (no significant weather)